createdAt,value
2019-02-06T00:02:11.619Z,3.90
2019-02-06T00:04:39.545Z,3.90
2019-02-06T00:07:07.442Z,3.90
2019-02-06T00:09:35.269Z,3.90
2019-02-06T00:12:03.067Z,3.90
2019-02-06T00:14:30.910Z,3.90
2019-02-06T00:16:59.101Z,3.90
2019-02-06T00:19:26.928Z,4.00
2019-02-06T00:21:54.719Z,3.90
2019-02-06T00:24:22.481Z,3.90
2019-02-06T00:26:50.282Z,3.90
2019-02-06T00:29:18.116Z,3.90
2019-02-06T00:31:46.260Z,3.90
2019-02-06T00:34:14.457Z,3.90
2019-02-06T00:36:42.731Z,3.90
2019-02-06T00:39:10.551Z,3.90
2019-02-06T00:41:38.344Z,3.90
2019-02-06T00:44:06.227Z,3.90
2019-02-06T00:46:34.182Z,3.90
2019-02-06T00:49:02.177Z,3.90
2019-02-06T00:51:30.147Z,3.90
2019-02-06T00:53:57.909Z,3.80
2019-02-06T00:56:26.046Z,3.90
2019-02-06T00:58:53.940Z,3.90
2019-02-06T01:01:22.023Z,3.90
2019-02-06T01:03:49.908Z,3.90
2019-02-06T01:06:17.701Z,3.90
2019-02-06T01:08:45.833Z,3.90
2019-02-06T01:11:13.744Z,3.90
2019-02-06T01:13:41.567Z,3.90
2019-02-06T01:16:09.353Z,3.90
2019-02-06T01:18:37.291Z,3.90
2019-02-06T01:21:05.071Z,3.90
2019-02-06T01:23:33.021Z,3.90
2019-02-06T01:26:01.415Z,3.90
2019-02-06T01:28:29.289Z,3.90
2019-02-06T01:31:00.641Z,4.00
2019-02-06T01:33:28.491Z,4.00
2019-02-06T01:35:56.287Z,3.90
2019-02-06T01:38:24.407Z,3.90
2019-02-06T01:40:52.181Z,3.90
2019-02-06T01:43:20.230Z,3.90
2019-02-06T01:45:48.028Z,3.90
2019-02-06T01:48:15.810Z,3.90
2019-02-06T01:50:43.602Z,3.90
2019-02-06T01:53:11.361Z,3.90
2019-02-06T01:55:39.245Z,3.90
2019-02-06T01:58:07.449Z,3.90
2019-02-06T02:00:36.365Z,3.90
2019-02-06T02:03:04.225Z,3.90
2019-02-06T02:05:31.993Z,3.90
2019-02-06T02:07:59.789Z,3.90
2019-02-06T02:10:27.558Z,3.90
2019-02-06T02:12:55.429Z,3.90
2019-02-06T02:15:23.207Z,3.90
2019-02-06T02:17:51.492Z,3.90
2019-02-06T02:20:20.062Z,3.80
2019-02-06T02:22:48.008Z,3.90
2019-02-06T02:25:16.066Z,3.90
2019-02-06T02:27:43.918Z,3.90
2019-02-06T02:30:13.294Z,3.80
2019-02-06T02:32:41.125Z,3.80
2019-02-06T02:35:09.564Z,3.70
2019-02-06T02:37:37.354Z,3.70
2019-02-06T02:40:05.567Z,3.70
2019-02-06T02:42:33.350Z,3.70
2019-02-06T02:45:01.179Z,3.80
2019-02-06T02:47:29.049Z,3.80
2019-02-06T02:49:56.918Z,3.80
2019-02-06T02:52:24.985Z,3.80
2019-02-06T02:54:52.850Z,3.80
2019-02-06T02:57:20.997Z,3.80
2019-02-06T02:59:49.086Z,3.80
2019-02-06T03:02:34.793Z,3.80
2019-02-06T03:05:07.298Z,3.80
2019-02-06T03:07:35.079Z,3.80
2019-02-06T03:10:02.875Z,3.80
2019-02-06T03:12:30.942Z,3.80
2019-02-06T03:14:58.830Z,3.80
2019-02-06T03:17:26.619Z,3.80
2019-02-06T03:19:55.097Z,3.90
2019-02-06T03:22:22.938Z,3.90
2019-02-06T03:24:50.823Z,3.90
2019-02-06T03:27:18.935Z,3.90
2019-02-06T03:29:46.752Z,3.90
2019-02-06T03:32:14.537Z,3.90
2019-02-06T03:34:42.339Z,3.90
2019-02-06T03:37:10.582Z,3.90
2019-02-06T03:39:38.698Z,3.90
2019-02-06T03:42:06.467Z,3.90
2019-02-06T03:44:34.295Z,3.90
2019-02-06T03:47:02.374Z,3.80
2019-02-06T03:49:30.143Z,3.80
2019-02-06T03:51:57.945Z,3.80
2019-02-06T03:54:25.788Z,3.90
2019-02-06T03:56:53.581Z,3.90
2019-02-06T03:59:21.406Z,3.90
2019-02-06T04:01:49.200Z,3.90
2019-02-06T04:04:17.088Z,3.90
2019-02-06T04:06:53.583Z,3.90
2019-02-06T04:09:14.569Z,3.90
2019-02-06T04:11:42.446Z,3.90
2019-02-06T04:14:10.250Z,4.00
2019-02-06T04:16:38.085Z,4.00
2019-02-06T04:19:05.866Z,3.90
2019-02-06T04:21:33.985Z,3.90
2019-02-06T04:24:01.750Z,3.90
2019-02-06T04:26:29.619Z,3.90
2019-02-06T04:28:58.098Z,3.90
2019-02-06T04:31:25.887Z,3.90
2019-02-06T04:33:53.735Z,3.90
2019-02-06T04:36:21.795Z,3.90
2019-02-06T04:38:49.578Z,3.90
2019-02-06T04:41:17.369Z,3.90
2019-02-06T04:43:45.133Z,3.90
2019-02-06T04:46:13.300Z,3.90
2019-02-06T04:48:41.071Z,3.80
2019-02-06T04:51:08.847Z,3.70
2019-02-06T04:53:36.878Z,3.60
2019-02-06T04:56:04.963Z,3.40
2019-02-06T04:58:32.817Z,3.30
2019-02-06T05:01:00.629Z,3.30
2019-02-06T05:03:28.567Z,3.20
2019-02-06T05:05:56.422Z,3.20
2019-02-06T05:08:24.294Z,3.00
2019-02-06T05:10:52.089Z,3.00
2019-02-06T05:13:20.035Z,2.90
2019-02-06T05:15:47.923Z,2.80
2019-02-06T05:18:15.711Z,2.70
2019-02-06T05:20:43.498Z,2.60
2019-02-06T05:23:11.384Z,2.50
2019-02-06T05:25:39.269Z,2.40
2019-02-06T05:28:07.198Z,2.30
2019-02-06T05:30:34.965Z,2.20
2019-02-06T05:33:02.783Z,2.10
2019-02-06T05:35:30.703Z,2.10
2019-02-06T05:37:58.495Z,2.00
2019-02-06T05:40:26.653Z,2.00
2019-02-06T05:42:54.438Z,1.90
2019-02-06T05:45:22.211Z,1.80
2019-02-06T05:47:49.993Z,1.80
2019-02-06T05:50:17.947Z,1.70
2019-02-06T05:52:45.933Z,1.70
2019-02-06T05:55:14.009Z,1.60
2019-02-06T05:57:42.447Z,1.70
2019-02-06T06:00:12.304Z,1.60
2019-02-06T06:02:40.086Z,1.60
2019-02-06T06:05:07.870Z,1.60
2019-02-06T06:07:44.486Z,1.60
2019-02-06T06:10:06.250Z,1.60
2019-02-06T06:12:34.038Z,1.60
2019-02-06T06:15:02.092Z,1.60
2019-02-06T06:17:29.935Z,1.50
2019-02-06T06:19:57.783Z,1.50
2019-02-06T06:22:25.666Z,1.50
2019-02-06T06:24:53.778Z,1.40
2019-02-06T06:27:21.558Z,1.40
2019-02-06T06:29:49.338Z,1.30
2019-02-06T06:32:17.229Z,1.40
2019-02-06T06:34:45.178Z,1.40
2019-02-06T06:37:13.073Z,1.40
2019-02-06T06:39:40.998Z,1.40
2019-02-06T06:42:08.802Z,1.40
2019-02-06T06:44:36.663Z,1.40
2019-02-06T06:47:04.542Z,1.40
2019-02-06T06:49:32.323Z,1.40
2019-02-06T06:52:03.905Z,1.40
2019-02-06T06:54:30.578Z,1.40
2019-02-06T06:56:58.365Z,1.40
2019-02-06T06:59:26.210Z,1.50
2019-02-06T07:01:54.042Z,1.50
2019-02-06T07:04:21.851Z,1.60
2019-02-06T07:06:49.627Z,1.70
2019-02-06T07:09:17.485Z,1.80
2019-02-06T07:11:45.346Z,1.80
2019-02-06T07:14:13.239Z,1.90
2019-02-06T07:16:41.048Z,1.90
2019-02-06T07:19:08.879Z,2.00
2019-02-06T07:21:36.710Z,2.10
2019-02-06T07:24:04.584Z,2.20
2019-02-06T07:26:32.360Z,2.20
2019-02-06T07:29:00.150Z,2.30
2019-02-06T07:31:27.939Z,2.30
2019-02-06T07:33:55.789Z,2.40
2019-02-06T07:36:23.575Z,2.40
2019-02-06T07:38:51.390Z,2.40
2019-02-06T07:41:19.515Z,2.40
2019-02-06T07:43:47.290Z,2.40
2019-02-06T07:46:15.146Z,2.40
2019-02-06T07:48:43.009Z,2.40
2019-02-06T07:51:11.162Z,2.40
2019-02-06T07:53:39.058Z,2.40
2019-02-06T07:56:07.134Z,2.40
2019-02-06T07:58:34.948Z,2.40
2019-02-06T08:01:03.066Z,2.40
2019-02-06T08:03:30.977Z,2.50
2019-02-06T08:05:58.835Z,2.60
2019-02-06T08:08:35.693Z,2.80
2019-02-06T08:10:56.213Z,2.90
2019-02-06T08:13:23.994Z,2.90
2019-02-06T08:15:51.741Z,3.00
2019-02-06T08:18:19.731Z,3.10
2019-02-06T08:20:47.554Z,3.00
2019-02-06T08:23:15.367Z,3.00
2019-02-06T08:25:43.137Z,2.90
2019-02-06T08:28:10.990Z,3.00
2019-02-06T08:30:39.602Z,2.90
2019-02-06T08:33:07.619Z,2.90
2019-02-06T08:35:35.560Z,3.00
2019-02-06T08:38:03.417Z,3.10
2019-02-06T08:40:31.481Z,3.30
2019-02-06T08:42:59.349Z,3.40
2019-02-06T08:45:28.381Z,3.50
2019-02-06T08:47:56.141Z,3.50
2019-02-06T08:50:24.306Z,3.50
2019-02-06T08:52:52.182Z,3.50
2019-02-06T08:57:48.110Z,3.70
2019-02-06T09:00:20.464Z,3.70
2019-02-06T09:02:48.235Z,3.80
2019-02-06T09:05:16.014Z,4.00
2019-02-06T09:07:44.169Z,4.10
2019-02-06T09:10:13.539Z,4.10
2019-02-06T09:12:41.663Z,4.10
2019-02-06T09:15:09.651Z,4.10
2019-02-06T09:17:37.514Z,4.30
2019-02-06T09:20:06.667Z,4.30
2019-02-06T09:22:34.489Z,4.40
2019-02-06T09:25:02.675Z,4.50
2019-02-06T09:27:30.446Z,4.60
2019-02-06T09:29:58.225Z,4.80
2019-02-06T09:32:25.993Z,4.80
2019-02-06T09:34:53.785Z,4.80
2019-02-06T09:37:21.598Z,4.90
2019-02-06T09:39:49.382Z,4.90
2019-02-06T09:42:17.549Z,4.90
2019-02-06T09:44:45.331Z,4.90
2019-02-06T09:47:13.093Z,4.90
2019-02-06T09:49:41.719Z,5.10
2019-02-06T09:52:09.666Z,5.30
2019-02-06T09:54:37.510Z,5.20
2019-02-06T09:57:05.330Z,5.20
2019-02-06T09:59:33.441Z,5.30
2019-02-06T10:02:01.290Z,5.40
2019-02-06T10:04:29.077Z,5.50
2019-02-06T10:06:56.833Z,5.30
2019-02-06T10:09:24.614Z,5.40
2019-02-06T10:11:52.458Z,5.50
2019-02-06T10:14:20.264Z,5.50
2019-02-06T10:16:48.109Z,5.50
2019-02-06T10:19:15.977Z,5.50
2019-02-06T10:21:43.821Z,5.50
2019-02-06T10:24:11.669Z,5.50
2019-02-06T10:26:39.462Z,5.60
2019-02-06T10:29:07.402Z,5.60
2019-02-06T10:31:35.191Z,5.60
2019-02-06T10:34:03.025Z,5.60
2019-02-06T10:36:30.809Z,5.60
2019-02-06T10:38:58.593Z,5.60
2019-02-06T10:41:26.381Z,5.70
2019-02-06T10:43:54.222Z,5.70
2019-02-06T10:46:22.017Z,5.90
2019-02-06T10:48:49.777Z,6.00
2019-02-06T10:51:17.574Z,6.20
2019-02-06T10:53:45.383Z,6.40
2019-02-06T10:58:40.705Z,6.80
2019-02-06T11:01:08.565Z,6.80
2019-02-06T11:03:36.334Z,6.90
2019-02-06T11:06:04.510Z,6.90
2019-02-06T11:08:32.286Z,7.00
2019-02-06T11:11:00.418Z,7.20
2019-02-06T11:13:28.257Z,7.30
2019-02-06T11:15:56.057Z,7.10
2019-02-06T11:18:23.868Z,6.90
2019-02-06T11:20:51.738Z,6.80
2019-02-06T11:23:19.502Z,6.90
2019-02-06T11:25:47.376Z,7.00
2019-02-06T11:28:15.537Z,7.10
2019-02-06T11:30:43.710Z,7.20
2019-02-06T11:33:11.552Z,7.10
2019-02-06T11:35:39.349Z,7.10
2019-02-06T11:38:07.222Z,7.20
2019-02-06T11:40:35.314Z,7.30
2019-02-06T11:43:03.269Z,7.30
2019-02-06T11:45:31.763Z,7.30
2019-02-06T11:47:59.525Z,7.40
2019-02-06T11:50:32.489Z,7.40
2019-02-06T11:53:00.245Z,7.40
2019-02-06T11:55:28.060Z,7.50
2019-02-06T11:57:56.062Z,7.40
2019-02-06T12:00:31.462Z,7.40
2019-02-06T12:02:59.285Z,7.30
2019-02-06T12:05:28.459Z,7.20
2019-02-06T12:07:56.235Z,7.10
2019-02-06T12:10:24.102Z,7.10
2019-02-06T12:12:51.950Z,7.10
2019-02-06T12:15:20.181Z,7.20
2019-02-06T12:17:48.156Z,7.30
2019-02-06T12:20:17.170Z,7.40
2019-02-06T12:22:44.935Z,7.40
2019-02-06T12:25:13.101Z,7.50
2019-02-06T12:27:41.014Z,7.60
2019-02-06T12:30:14.373Z,7.70
2019-02-06T12:32:51.909Z,7.60
2019-02-06T12:35:12.097Z,7.60
2019-02-06T12:37:39.857Z,7.60
2019-02-06T12:40:07.838Z,7.50
2019-02-06T12:42:35.680Z,7.50
2019-02-06T12:45:03.685Z,7.50
2019-02-06T12:47:31.458Z,7.50
2019-02-06T12:49:59.230Z,7.50
2019-02-06T12:52:27.391Z,7.50
2019-02-06T12:54:55.209Z,7.60
2019-02-06T12:57:23.025Z,7.60
2019-02-06T12:59:50.804Z,7.50
2019-02-06T13:02:18.654Z,7.40
2019-02-06T13:04:46.861Z,7.40
2019-02-06T13:07:14.769Z,7.30
2019-02-06T13:09:42.683Z,7.50
2019-02-06T13:12:10.447Z,7.50
2019-02-06T13:14:38.250Z,7.50
2019-02-06T13:17:06.013Z,7.50
2019-02-06T13:19:33.826Z,7.50
2019-02-06T13:22:01.622Z,7.60
2019-02-06T13:24:29.454Z,7.60
2019-02-06T13:26:57.373Z,7.70
2019-02-06T13:29:25.405Z,7.60
2019-02-06T13:31:53.310Z,7.50
2019-02-06T13:34:21.081Z,7.50
2019-02-06T13:36:48.921Z,7.50
2019-02-06T13:39:16.958Z,7.50
2019-02-06T13:41:44.766Z,7.40
2019-02-06T13:44:12.602Z,7.40
2019-02-06T13:46:40.685Z,7.40
2019-02-06T13:49:08.549Z,7.40
2019-02-06T13:51:36.467Z,7.40
2019-02-06T13:54:04.478Z,7.40
2019-02-06T13:56:32.455Z,7.40
2019-02-06T13:59:00.329Z,7.30
2019-02-06T14:01:28.230Z,7.40
2019-02-06T14:03:56.057Z,7.50
2019-02-06T14:06:24.082Z,7.60
2019-02-06T14:08:52.165Z,7.60
2019-02-06T14:11:19.996Z,7.50
2019-02-06T14:13:47.842Z,7.50
2019-02-06T14:16:15.738Z,7.60
2019-02-06T14:18:43.565Z,7.40
2019-02-06T14:21:11.382Z,7.30
2019-02-06T14:23:49.626Z,7.20
2019-02-06T14:26:39.943Z,7.10
2019-02-06T14:29:33.027Z,7.00
2019-02-06T14:32:18.905Z,6.80
2019-02-06T14:35:15.206Z,6.70
2019-02-06T14:38:02.373Z,6.50
2019-02-06T14:40:39.305Z,6.40
2019-02-06T14:43:10.818Z,6.30
2019-02-06T14:46:13.301Z,6.30
2019-02-06T14:48:51.610Z,6.20
2019-02-06T14:51:51.045Z,6.10
2019-02-06T14:54:30.562Z,6.10
2019-02-06T14:57:04.869Z,6.00
2019-02-06T14:59:51.977Z,6.00
2019-02-06T15:02:32.561Z,6.00
2019-02-06T15:05:18.408Z,5.90
2019-02-06T15:07:57.749Z,5.80
2019-02-06T15:10:34.778Z,5.80
2019-02-06T15:13:20.831Z,5.70
2019-02-06T15:15:55.494Z,5.50
2019-02-06T15:18:37.645Z,5.40
2019-02-06T15:21:27.595Z,5.30
2019-02-06T15:24:13.887Z,5.20
2019-02-06T15:26:49.904Z,5.10
2019-02-06T15:29:20.471Z,4.90
2019-02-06T15:32:03.434Z,4.80
2019-02-06T15:34:50.747Z,4.80
2019-02-06T15:37:26.007Z,4.70
2019-02-06T15:40:03.413Z,4.60
2019-02-06T15:42:34.426Z,4.60
2019-02-06T15:45:30.606Z,4.50
2019-02-06T15:48:02.411Z,4.50
2019-02-06T15:51:08.598Z,4.40
2019-02-06T15:53:55.696Z,4.40
2019-02-06T15:56:26.757Z,4.30
2019-02-06T15:59:02.041Z,4.30
2019-02-06T16:01:33.820Z,4.20
2019-02-06T16:04:30.790Z,4.20
2019-02-06T16:07:03.979Z,4.20
2019-02-06T16:09:51.678Z,4.10
2019-02-06T16:12:43.156Z,4.10
2019-02-06T16:15:21.355Z,4.10
2019-02-06T16:17:55.326Z,4.10
2019-02-06T16:20:36.659Z,4.10
2019-02-06T16:23:16.466Z,4.10
2019-02-06T16:25:51.535Z,4.10
2019-02-06T16:28:30.718Z,4.10
2019-02-06T16:31:17.802Z,4.10
2019-02-06T16:34:08.161Z,4.00
2019-02-06T16:37:07.858Z,4.00
2019-02-06T16:39:41.961Z,4.00
2019-02-06T16:42:28.206Z,4.10
2019-02-06T16:45:01.218Z,4.00
2019-02-06T16:47:45.172Z,4.00
2019-02-06T16:50:26.018Z,4.00
2019-02-06T16:53:11.571Z,4.00
2019-02-06T16:55:57.508Z,4.00
2019-02-06T16:58:28.202Z,4.00
2019-02-06T17:01:16.857Z,4.00
2019-02-06T17:04:02.838Z,4.00
2019-02-06T17:06:40.767Z,4.00
2019-02-06T17:09:32.056Z,4.00
2019-02-06T17:12:15.813Z,4.00
2019-02-06T17:15:01.826Z,4.00
2019-02-06T17:17:43.124Z,4.10
2019-02-06T17:20:29.278Z,4.20
2019-02-06T17:23:12.230Z,4.30
2019-02-06T17:25:51.739Z,4.30
2019-02-06T17:28:32.536Z,4.30
2019-02-06T17:31:28.768Z,4.20
2019-02-06T17:34:03.866Z,4.20
2019-02-06T17:36:35.705Z,4.20
2019-02-06T17:39:26.739Z,4.20
2019-02-06T17:41:57.678Z,4.20
2019-02-06T17:44:53.889Z,4.20
2019-02-06T17:47:28.309Z,4.20
2019-02-06T17:50:20.186Z,4.20
2019-02-06T17:53:05.903Z,4.20
2019-02-06T17:55:33.715Z,4.20
2019-02-06T17:58:02.586Z,4.20
2019-02-06T18:00:32.518Z,4.20
2019-02-06T18:03:01.589Z,4.20
2019-02-06T18:05:29.462Z,4.20
2019-02-06T18:07:57.246Z,4.20
2019-02-06T18:10:25.058Z,4.30
2019-02-06T18:12:52.874Z,4.30
2019-02-06T18:15:20.694Z,4.30
2019-02-06T18:17:54.398Z,4.30
2019-02-06T18:20:22.483Z,4.30
2019-02-06T18:22:50.315Z,4.30
2019-02-06T18:25:18.773Z,4.30
2019-02-06T18:27:46.874Z,4.30
2019-02-06T18:30:16.037Z,4.40
2019-02-06T18:32:43.830Z,4.30
2019-02-06T18:35:11.728Z,4.30
2019-02-06T18:37:43.324Z,4.30
2019-02-06T18:40:09.858Z,4.40
2019-02-06T18:42:38.411Z,4.40
2019-02-06T18:45:09.390Z,4.40
2019-02-06T18:47:37.370Z,4.40
2019-02-06T18:50:06.042Z,4.40
2019-02-06T18:52:34.018Z,4.40
2019-02-06T18:55:01.850Z,4.40
2019-02-06T18:57:29.681Z,4.40
2019-02-06T18:59:57.496Z,4.40
2019-02-06T19:02:25.538Z,4.50
2019-02-06T19:04:53.381Z,4.50
2019-02-06T19:07:23.650Z,4.40
2019-02-06T19:09:51.183Z,4.40
2019-02-06T19:12:19.089Z,4.40
2019-02-06T19:14:47.126Z,4.40
2019-02-06T19:17:15.029Z,4.40
2019-02-06T19:19:45.030Z,4.40
2019-02-06T19:22:12.533Z,4.40
2019-02-06T19:24:40.691Z,4.40
2019-02-06T19:27:08.754Z,4.40
2019-02-06T19:29:36.570Z,4.40
2019-02-06T19:32:04.949Z,4.40
2019-02-06T19:34:32.714Z,4.30
2019-02-06T19:37:00.625Z,4.30
2019-02-06T19:39:28.524Z,4.40
2019-02-06T19:41:56.458Z,4.40
2019-02-06T19:44:24.597Z,4.40
2019-02-06T19:46:52.501Z,4.30
2019-02-06T19:49:20.349Z,4.30
2019-02-06T19:51:48.239Z,4.30
2019-02-06T19:54:16.090Z,4.30
2019-02-06T19:56:43.971Z,4.30
2019-02-06T19:59:12.163Z,4.30
2019-02-06T20:01:40.021Z,4.20
2019-02-06T20:04:07.913Z,4.20
2019-02-06T20:06:36.322Z,4.10
2019-02-06T20:09:08.549Z,4.10
2019-02-06T20:11:36.532Z,4.00
2019-02-06T20:14:04.807Z,4.00
2019-02-06T20:16:32.613Z,3.90
2019-02-06T20:19:00.466Z,3.90
2019-02-06T20:21:28.387Z,3.80
2019-02-06T20:23:56.607Z,3.80
2019-02-06T20:26:24.410Z,3.70
2019-02-06T20:28:52.418Z,3.70
2019-02-06T20:31:20.259Z,3.70
2019-02-06T20:33:48.017Z,3.70
2019-02-06T20:36:15.837Z,3.70
2019-02-06T20:38:43.789Z,3.60
2019-02-06T20:41:11.630Z,3.60
2019-02-06T20:43:39.776Z,3.60
2019-02-06T20:46:07.701Z,3.60
2019-02-06T20:48:35.534Z,3.50
2019-02-06T20:51:03.359Z,3.50
2019-02-06T20:53:31.266Z,3.50
2019-02-06T20:55:59.044Z,3.50
2019-02-06T20:58:26.883Z,3.50
2019-02-06T21:00:54.650Z,3.50
2019-02-06T21:03:23.215Z,3.50
2019-02-06T21:05:50.970Z,3.50
2019-02-06T21:08:18.834Z,3.40
2019-02-06T21:10:46.609Z,3.50
2019-02-06T21:13:14.581Z,3.50
2019-02-06T21:15:42.366Z,3.50
2019-02-06T21:18:10.198Z,3.50
2019-02-06T21:20:38.645Z,3.60
2019-02-06T21:23:06.458Z,3.60
2019-02-06T21:25:34.389Z,3.70
2019-02-06T21:28:02.440Z,3.60
2019-02-06T21:30:31.559Z,3.60
2019-02-06T21:32:59.393Z,3.60
2019-02-06T21:35:27.402Z,3.60
2019-02-06T21:37:55.739Z,3.50
2019-02-06T21:40:24.837Z,3.50
2019-02-06T21:42:52.873Z,3.50
2019-02-06T21:45:20.901Z,3.50
2019-02-06T21:47:49.045Z,3.50
2019-02-06T21:50:17.488Z,3.50
2019-02-06T21:52:45.505Z,3.50
2019-02-06T21:55:14.185Z,3.50
2019-02-06T21:57:42.055Z,3.50
2019-02-06T22:00:14.899Z,3.50
2019-02-06T22:02:42.805Z,3.50
2019-02-06T22:05:10.949Z,3.50
2019-02-06T22:07:38.854Z,3.50
2019-02-06T22:10:07.733Z,3.50
2019-02-06T22:12:35.627Z,3.50
2019-02-06T22:15:05.023Z,3.40
2019-02-06T22:17:32.821Z,3.40
2019-02-06T22:20:01.508Z,3.40
2019-02-06T22:22:29.400Z,3.40
2019-02-06T22:24:57.166Z,3.40
2019-02-06T22:27:25.057Z,3.40
2019-02-06T22:29:53.102Z,3.50
2019-02-06T22:32:20.996Z,3.50
2019-02-06T22:34:48.837Z,3.60
2019-02-06T22:37:16.725Z,3.60
2019-02-06T22:39:44.577Z,3.60
2019-02-06T22:42:12.436Z,3.70
2019-02-06T22:44:40.218Z,3.70
2019-02-06T22:47:08.065Z,3.70
2019-02-06T22:49:35.962Z,3.70
2019-02-06T22:52:04.006Z,3.80
2019-02-06T22:54:31.901Z,3.80
2019-02-06T22:56:59.850Z,3.80
2019-02-06T22:59:28.047Z,3.80
2019-02-06T23:01:56.870Z,3.80
2019-02-06T23:04:24.701Z,3.80
2019-02-06T23:06:52.471Z,3.80
2019-02-06T23:09:20.261Z,3.90
2019-02-06T23:11:48.171Z,3.90
2019-02-06T23:14:17.813Z,4.00
2019-02-06T23:16:46.277Z,4.00
2019-02-06T23:19:14.063Z,4.00
2019-02-06T23:21:41.914Z,4.00
2019-02-06T23:24:09.865Z,4.00
2019-02-06T23:26:37.707Z,4.10
2019-02-06T23:29:05.819Z,4.10
2019-02-06T23:31:33.659Z,4.20
2019-02-06T23:34:01.615Z,4.20
2019-02-06T23:36:29.374Z,4.20
2019-02-06T23:38:57.162Z,4.20
2019-02-06T23:41:24.943Z,4.20
2019-02-06T23:43:52.721Z,4.20
2019-02-06T23:46:20.834Z,4.10
2019-02-06T23:48:48.895Z,4.20
2019-02-06T23:51:16.658Z,4.10
2019-02-06T23:53:44.507Z,4.10
2019-02-06T23:56:12.279Z,4.10
2019-02-06T23:58:40.071Z,4.10
